sensor_id;sensor_type;location;lat;lon;timestamp;pressure;altitude;pressure_sealevel;temperature;humidity
55263;BME280;41125;48.752;9.168;2023-02-22T00:00:10;96775.53;;;6.68;72.79
55263;BME280;41125;48.752;9.168;2023-02-22T00:00:49;96768.78;;;6.65;72.73
55263;BME280;41125;48.752;9.168;2023-02-22T00:01:22;96766.09;;;6.65;73.11
55263;BME280;41125;48.752;9.168;2023-02-22T00:02:05;96774.44;;;6.64;72.73
55263;BME280;41125;48.752;9.168;2023-02-22T00:02:56;96770.13;;;6.63;72.84
55263;BME280;41125;48.752;9.168;2023-02-22T00:03:30;96772.81;;;6.63;72.83
55263;BME280;41125;48.752;9.168;2023-02-22T00:04:05;96772.03;;;6.62;73.18
55263;BME280;41125;48.752;9.168;2023-02-22T00:04:37;96776.34;;;6.63;73.09
55263;BME280;41125;48.752;9.168;2023-02-22T00:05:11;96776.34;;;6.63;72.99
55263;BME280;41125;48.752;9.168;2023-02-22T00:05:46;96774.44;;;6.64;72.85
55263;BME280;41125;48.752;9.168;2023-02-22T00:06:19;96773.62;;;6.63;73.17
55263;BME280;41125;48.752;9.168;2023-02-22T00:06:51;96777.16;;;6.64;73.18
55263;BME280;41125;48.752;9.168;2023-02-22T00:07:23;96762.84;;;6.63;72.90
55263;BME280;41125;48.752;9.168;2023-02-22T00:07:54;96767.16;;;6.64;72.92
55263;BME280;41125;48.752;9.168;2023-02-22T00:08:30;96770.66;;;6.65;73.04
55263;BME280;41125;48.752;9.168;2023-02-22T00:09:03;96765.28;;;6.65;72.98
55263;BME280;41125;48.752;9.168;2023-02-22T00:09:34;96771.47;;;6.65;73.17
55263;BME280;41125;48.752;9.168;2023-02-22T00:10:07;96767.16;;;6.64;73.09
55263;BME280;41125;48.752;9.168;2023-02-22T00:10:43;96769.87;;;6.64;72.86
55263;BME280;41125;48.752;9.168;2023-02-22T00:11:15;96771.47;;;6.65;73.34
55263;BME280;41125;48.752;9.168;2023-02-22T00:11:47;96776.87;;;6.65;72.97
55263;BME280;41125;48.752;9.168;2023-02-22T00:12:22;96767.97;;;6.65;73.19
55263;BME280;41125;48.752;9.168;2023-02-22T00:12:54;96766.91;;;6.66;72.92
55263;BME280;41125;48.752;9.168;2023-02-22T00:13:27;96772.28;;;6.66;73.28
55263;BME280;41125;48.752;9.168;2023-02-22T00:13:59;96767.72;;;6.66;72.93
55263;BME280;41125;48.752;9.168;2023-02-22T00:14:30;96770.13;;;6.68;73.09
55263;BME280;41125;48.752;9.168;2023-02-22T00:15:02;96762.84;;;6.68;73.40
55263;BME280;41125;48.752;9.168;2023-02-22T00:15:35;96772.56;;;6.69;73.21
55263;BME280;41125;48.752;9.168;2023-02-22T00:16:06;96765.00;;;6.71;72.99
55263;BME280;41125;48.752;9.168;2023-02-22T00:16:38;96764.19;;;6.71;73.52
55263;BME280;41125;48.752;9.168;2023-02-22T00:17:11;96766.63;;;6.72;73.18
55263;BME280;41125;48.752;9.168;2023-02-22T00:17:43;96766.63;;;6.72;73.36
55263;BME280;41125;48.752;9.168;2023-02-22T00:18:17;96766.34;;;6.74;73.13
55263;BME280;41125;48.752;9.168;2023-02-22T00:18:49;96765.28;;;6.75;73.42
55263;BME280;41125;48.752;9.168;2023-02-22T00:19:22;96766.09;;;6.76;73.06
55263;BME280;41125;48.752;9.168;2023-02-22T00:19:53;96763.41;;;6.76;73.31
55263;BME280;41125;48.752;9.168;2023-02-22T00:20:25;96764.19;;;6.76;73.37
55263;BME280;41125;48.752;9.168;2023-02-22T00:20:58;96770.69;;;6.75;73.10
55263;BME280;41125;48.752;9.168;2023-02-22T00:21:30;96766.09;;;6.76;73.50
55263;BME280;41125;48.752;9.168;2023-02-22T00:22:01;96761.50;;;6.76;73.42
55263;BME280;41125;48.752;9.168;2023-02-22T00:22:33;96769.87;;;6.75;73.78
55263;BME280;41125;48.752;9.168;2023-02-22T00:23:12;96759.09;;;6.75;73.89
55263;BME280;41125;48.752;9.168;2023-02-22T00:23:46;96762.84;;;6.73;73.80
55263;BME280;41125;48.752;9.168;2023-02-22T00:24:18;96759.34;;;6.73;73.91
55263;BME280;41125;48.752;9.168;2023-02-22T00:24:56;96751.00;;;6.75;73.97
55263;BME280;41125;48.752;9.168;2023-02-22T00:25:28;96754.75;;;6.73;73.91
55263;BME280;41125;48.752;9.168;2023-02-22T00:25:59;96757.47;;;6.73;73.51
55263;BME280;41125;48.752;9.168;2023-02-22T00:26:32;96759.09;;;6.75;73.50
55263;BME280;41125;48.752;9.168;2023-02-22T00:27:04;96757.47;;;6.73;74.01
55263;BME280;41125;48.752;9.168;2023-02-22T00:27:39;96759.09;;;6.75;73.75
55263;BME280;41125;48.752;9.168;2023-02-22T00:28:11;96757.47;;;6.73;74.09
55263;BME280;41125;48.752;9.168;2023-02-22T00:28:47;96757.47;;;6.73;74.09
55263;BME280;41125;48.752;9.168;2023-02-22T00:29:19;96752.88;;;6.74;73.65
55263;BME280;41125;48.752;9.168;2023-02-22T00:29:51;96748.28;;;6.75;73.66
55263;BME280;41125;48.752;9.168;2023-02-22T00:30:26;96749.91;;;6.76;73.99
55263;BME280;41125;48.752;9.168;2023-02-22T00:30:57;96754.50;;;6.75;73.66
55263;BME280;41125;48.752;9.168;2023-02-22T00:31:29;96749.38;;;6.73;74.02
55263;BME280;41125;48.752;9.168;2023-02-22T00:32:02;96748.84;;;6.71;74.11
55263;BME280;41125;48.752;9.168;2023-02-22T00:32:34;96752.34;;;6.72;73.86
55263;BME280;41125;48.752;9.168;2023-02-22T00:33:06;96750.44;;;6.72;73.84
55263;BME280;41125;48.752;9.168;2023-02-22T00:33:38;96747.75;;;6.72;73.49
55263;BME280;41125;48.752;9.168;2023-02-22T00:34:09;96750.44;;;6.72;73.32
55263;BME280;41125;48.752;9.168;2023-02-22T00:34:41;96750.44;;;6.72;73.41
55263;BME280;41125;48.752;9.168;2023-02-22T00:35:14;96753.97;;;6.73;73.76
55263;BME280;41125;48.752;9.168;2023-02-22T00:35:47;96753.16;;;6.72;73.98
55263;BME280;41125;48.752;9.168;2023-02-22T00:36:19;96753.16;;;6.72;73.65
55263;BME280;41125;48.752;9.168;2023-02-22T00:36:50;96752.06;;;6.73;73.98
55263;BME280;41125;48.752;9.168;2023-02-22T00:37:22;96752.06;;;6.73;73.83
55263;BME280;41125;48.752;9.168;2023-02-22T00:37:58;96759.09;;;6.75;73.43
55263;BME280;41125;48.752;9.168;2023-02-22T00:38:30;96753.69;;;6.75;73.59
55263;BME280;41125;48.752;9.168;2023-02-22T00:39:03;96753.69;;;6.75;73.51
55263;BME280;41125;48.752;9.168;2023-02-22T00:39:34;96749.91;;;6.76;73.56
55263;BME280;41125;48.752;9.168;2023-02-22T00:40:11;96758.00;;;6.76;73.44
55263;BME280;41125;48.752;9.168;2023-02-22T00:40:42;96758.53;;;6.78;73.52
55263;BME280;41125;48.752;9.168;2023-02-22T00:41:18;96754.22;;;6.77;73.52
55263;BME280;41125;48.752;9.168;2023-02-22T00:41:50;96755.03;;;6.77;73.79
55263;BME280;41125;48.752;9.168;2023-02-22T00:42:21;96754.22;;;6.77;73.67
55263;BME280;41125;48.752;9.168;2023-02-22T00:42:53;96756.91;;;6.77;73.59
55263;BME280;41125;48.752;9.168;2023-02-22T00:43:24;96754.22;;;6.77;73.34
55263;BME280;41125;48.752;9.168;2023-02-22T00:43:56;96753.16;;;6.78;73.33
55263;BME280;41125;48.752;9.168;2023-02-22T00:44:27;96753.94;;;6.78;73.54
55263;BME280;41125;48.752;9.168;2023-02-22T00:44:58;96750.44;;;6.78;73.31
55263;BME280;41125;48.752;9.168;2023-02-22T00:45:31;96748.56;;;6.78;73.39
55263;BME280;41125;48.752;9.168;2023-02-22T00:46:06;96751.25;;;6.78;73.47
55263;BME280;41125;48.752;9.168;2023-02-22T00:46:37;96753.94;;;6.78;73.41
55263;BME280;41125;48.752;9.168;2023-02-22T00:47:09;96752.06;;;6.79;73.65
55263;BME280;41125;48.752;9.168;2023-02-22T00:47:40;96754.75;;;6.79;73.50
55263;BME280;41125;48.752;9.168;2023-02-22T00:48:12;96751.00;;;6.80;73.35
55263;BME280;41125;48.752;9.168;2023-02-22T00:48:43;96752.06;;;6.79;73.89
55263;BME280;41125;48.752;9.168;2023-02-22T00:49:15;96755.56;;;6.79;73.38
55263;BME280;41125;48.752;9.168;2023-02-22T00:49:46;96751.00;;;6.80;73.89
55263;BME280;41125;48.752;9.168;2023-02-22T00:50:19;96753.69;;;6.80;73.58
55263;BME280;41125;48.752;9.168;2023-02-22T00:50:50;96751.78;;;6.80;73.89
55263;BME280;41125;48.752;9.168;2023-02-22T00:51:25;96751.00;;;6.80;73.47
55263;BME280;41125;48.752;9.168;2023-02-22T00:51:57;96757.19;;;6.80;73.62
55263;BME280;41125;48.752;9.168;2023-02-22T00:52:28;96751.00;;;6.80;73.80
55263;BME280;41125;48.752;9.168;2023-02-22T00:53:00;96745.59;;;6.80;73.68
55263;BME280;41125;48.752;9.168;2023-02-22T00:53:33;96751.00;;;6.80;74.10
55263;BME280;41125;48.752;9.168;2023-02-22T00:54:05;96743.16;;;6.78;74.08
55263;BME280;41125;48.752;9.168;2023-02-22T00:54:37;96747.75;;;6.78;73.88
55263;BME280;41125;48.752;9.168;2023-02-22T00:55:13;96758.53;;;6.78;74.16
55263;BME280;41125;48.752;9.168;2023-02-22T00:55:45;96749.91;;;6.76;74.20
55263;BME280;41125;48.752;9.168;2023-02-22T00:56:16;96747.22;;;6.76;74.21
55263;BME280;41125;48.752;9.168;2023-02-22T00:56:47;96744.53;;;6.76;74.00
55263;BME280;41125;48.752;9.168;2023-02-22T00:57:22;96753.69;;;6.75;73.96
55263;BME280;41125;48.752;9.168;2023-02-22T00:57:54;96748.28;;;6.75;74.15
55263;BME280;41125;48.752;9.168;2023-02-22T00:58:25;96747.47;;;6.74;74.32
55263;BME280;41125;48.752;9.168;2023-02-22T00:58:58;96745.06;;;6.72;74.36
55263;BME280;41125;48.752;9.168;2023-02-22T00:59:30;96743.44;;;6.71;74.47
55263;BME280;41125;48.752;9.168;2023-02-22T01:00:06;96741.00;;;6.70;74.47
55263;BME280;41125;48.752;9.168;2023-02-22T01:00:44;96745.59;;;6.69;74.27
55263;BME280;41125;48.752;9.168;2023-02-22T01:01:16;96743.97;;;6.68;74.39
55263;BME280;41125;48.752;9.168;2023-02-22T01:01:47;96740.75;;;6.66;74.65
55263;BME280;41125;48.752;9.168;2023-02-22T01:02:18;96741.56;;;6.67;74.06
55263;BME280;41125;48.752;9.168;2023-02-22T01:02:50;96740.75;;;6.66;74.59
55263;BME280;41125;48.752;9.168;2023-02-22T01:03:22;96742.91;;;6.64;74.90
55263;BME280;41125;48.752;9.168;2023-02-22T01:03:53;96739.66;;;6.62;74.99
55263;BME280;41125;48.752;9.168;2023-02-22T01:04:24;96743.44;;;6.61;75.02
55263;BME280;41125;48.752;9.168;2023-02-22T01:04:56;96745.59;;;6.59;74.86
55263;BME280;41125;48.752;9.168;2023-02-22T01:05:28;96744.00;;;6.58;75.10
55263;BME280;41125;48.752;9.168;2023-02-22T01:06:00;96742.41;;;6.57;75.04
55263;BME280;41125;48.752;9.168;2023-02-22T01:06:31;96736.19;;;6.57;75.04
55263;BME280;41125;48.752;9.168;2023-02-22T01:07:02;96740.78;;;6.56;75.14
55263;BME280;41125;48.752;9.168;2023-02-22T01:07:33;96737.28;;;6.56;74.85
55263;BME280;41125;48.752;9.168;2023-02-22T01:08:07;96735.38;;;6.56;74.74
55263;BME280;41125;48.752;9.168;2023-02-22T01:08:45;96738.09;;;6.56;75.08
55263;BME280;41125;48.752;9.168;2023-02-22T01:09:16;96738.09;;;6.56;74.94
55263;BME280;41125;48.752;9.168;2023-02-22T01:09:47;96731.06;;;6.55;74.62
55263;BME280;41125;48.752;9.168;2023-02-22T01:10:20;96734.56;;;6.56;74.31
55263;BME280;41125;48.752;9.168;2023-02-22T01:10:52;96735.38;;;6.56;74.39
55263;BME280;41125;48.752;9.168;2023-02-22T01:11:24;96730.00;;;6.56;74.38
55263;BME280;41125;48.752;9.168;2023-02-22T01:11:55;96731.59;;;6.57;74.51
55263;BME280;41125;48.752;9.168;2023-02-22T01:12:28;96738.63;;;6.58;74.39
55263;BME280;41125;48.752;9.168;2023-02-22T01:13:00;96727.84;;;6.58;74.43
55263;BME280;41125;48.752;9.168;2023-02-22T01:13:35;96734.81;;;6.59;74.23
55263;BME280;41125;48.752;9.168;2023-02-22T01:14:06;96731.03;;;6.60;74.47
55263;BME280;41125;48.752;9.168;2023-02-22T01:14:40;96731.59;;;6.62;74.21
55263;BME280;41125;48.752;9.168;2023-02-22T01:15:12;96730.50;;;6.63;74.41
55263;BME280;41125;48.752;9.168;2023-02-22T01:15:44;96725.09;;;6.63;74.37
55263;BME280;41125;48.752;9.168;2023-02-22T01:16:16;96736.69;;;6.64;74.24
55263;BME280;41125;48.752;9.168;2023-02-22T01:16:48;96725.09;;;6.63;74.23
55263;BME280;41125;48.752;9.168;2023-02-22T01:17:20;96732.13;;;6.64;74.38
55263;BME280;41125;48.752;9.168;2023-02-22T01:17:52;96724.31;;;6.63;74.19
55263;BME280;41125;48.752;9.168;2023-02-22T01:18:24;96730.50;;;6.63;74.33
55263;BME280;41125;48.752;9.168;2023-02-22T01:18:55;96718.09;;;6.62;74.19
55263;BME280;41125;48.752;9.168;2023-02-22T01:19:27;96726.19;;;6.62;74.17
55263;BME280;41125;48.752;9.168;2023-02-22T01:19:59;96726.19;;;6.62;74.06
55263;BME280;41125;48.752;9.168;2023-02-22T01:20:31;96732.38;;;6.63;74.18
55263;BME280;41125;48.752;9.168;2023-02-22T01:21:04;96725.09;;;6.63;74.22
55263;BME280;41125;48.752;9.168;2023-02-22T01:21:36;96729.69;;;6.63;74.39
55263;BME280;41125;48.752;9.168;2023-02-22T01:22:07;96728.88;;;6.62;74.05
55263;BME280;41125;48.752;9.168;2023-02-22T01:22:49;96720.78;;;6.62;74.11
55263;BME280;41125;48.752;9.168;2023-02-22T01:23:21;96723.50;;;6.62;74.06
55263;BME280;41125;48.752;9.168;2023-02-22T01:23:52;96725.66;;;6.60;74.49
55263;BME280;41125;48.752;9.168;2023-02-22T01:24:25;96721.88;;;6.61;74.26
55263;BME280;41125;48.752;9.168;2023-02-22T01:24:56;96720.25;;;6.60;74.25
55263;BME280;41125;48.752;9.168;2023-02-22T01:25:29;96720.25;;;6.60;74.68
55263;BME280;41125;48.752;9.168;2023-02-22T01:26:01;96721.06;;;6.61;74.23
55263;BME280;41125;48.752;9.168;2023-02-22T01:26:35;96716.47;;;6.61;74.22
55263;BME280;41125;48.752;9.168;2023-02-22T01:27:07;96715.66;;;6.61;74.50
55263;BME280;41125;48.752;9.168;2023-02-22T01:27:40;96727.25;;;6.61;74.16
55263;BME280;41125;48.752;9.168;2023-02-22T01:28:11;96716.47;;;6.61;74.44
55263;BME280;41125;48.752;9.168;2023-02-22T01:28:43;96722.94;;;6.60;74.25
55263;BME280;41125;48.752;9.168;2023-02-22T01:29:16;96724.56;;;6.61;74.60
55263;BME280;41125;48.752;9.168;2023-02-22T01:29:48;96719.19;;;6.61;74.18
55263;BME280;41125;48.752;9.168;2023-02-22T01:30:25;96716.47;;;6.61;74.46
55263;BME280;41125;48.752;9.168;2023-02-22T01:30:57;96723.75;;;6.61;74.28
55263;BME280;41125;48.752;9.168;2023-02-22T01:31:32;96718.38;;;6.61;74.38
55263;BME280;41125;48.752;9.168;2023-02-22T01:32:04;96720.25;;;6.60;74.56
55263;BME280;41125;48.752;9.168;2023-02-22T01:32:38;96726.47;;;6.61;74.60
55263;BME280;41125;48.752;9.168;2023-02-22T01:33:10;96721.88;;;6.61;74.75
55263;BME280;41125;48.752;9.168;2023-02-22T01:33:42;96725.66;;;6.60;74.70
55263;BME280;41125;48.752;9.168;2023-02-22T01:34:16;96717.84;;;6.59;74.31
55263;BME280;41125;48.752;9.168;2023-02-22T01:34:48;96724.84;;;6.60;74.68
55263;BME280;41125;48.752;9.168;2023-02-22T01:35:22;96725.66;;;6.60;74.55
55263;BME280;41125;48.752;9.168;2023-02-22T01:35:54;96717.56;;;6.60;74.55
55263;BME280;41125;48.752;9.168;2023-02-22T01:36:26;96727.25;;;6.61;74.45
55263;BME280;41125;48.752;9.168;2023-02-22T01:36:57;96722.94;;;6.60;74.62
55263;BME280;41125;48.752;9.168;2023-02-22T01:37:28;96720.25;;;6.60;74.60
55263;BME280;41125;48.752;9.168;2023-02-22T01:38:00;96717.28;;;6.62;74.35
55263;BME280;41125;48.752;9.168;2023-02-22T01:38:32;96720.78;;;6.62;74.58
55263;BME280;41125;48.752;9.168;2023-02-22T01:39:04;96712.72;;;6.62;74.37
55263;BME280;41125;48.752;9.168;2023-02-22T01:39:36;96723.50;;;6.62;74.48
55263;BME280;41125;48.752;9.168;2023-02-22T01:40:13;96718.91;;;6.63;74.50
55263;BME280;41125;48.752;9.168;2023-02-22T01:40:48;96717.28;;;6.62;74.28
55263;BME280;41125;48.752;9.168;2023-02-22T01:41:20;96713.50;;;6.63;74.38
55263;BME280;41125;48.752;9.168;2023-02-22T01:41:52;96713.50;;;6.63;74.66
55263;BME280;41125;48.752;9.168;2023-02-22T01:42:24;96718.09;;;6.62;74.53
55263;BME280;41125;48.752;9.168;2023-02-22T01:42:59;96710.00;;;6.62;74.37
55263;BME280;41125;48.752;9.168;2023-02-22T01:43:32;96718.91;;;6.63;74.70
55263;BME280;41125;48.752;9.168;2023-02-22T01:44:32;96708.94;;;6.63;74.68
55263;BME280;41125;48.752;9.168;2023-02-22T01:46:25;96715.41;;;6.67;74.56
55263;BME280;41125;48.752;9.168;2023-02-22T01:46:58;96706.22;;;6.68;74.35
55263;BME280;41125;48.752;9.168;2023-02-22T01:47:30;96706.22;;;6.68;74.35
55263;BME280;41125;48.752;9.168;2023-02-22T01:48:25;96704.06;;;6.70;73.89
55263;BME280;41125;48.752;9.168;2023-02-22T01:49:03;96703.53;;;6.73;74.14
55263;BME280;41125;48.752;9.168;2023-02-22T01:49:45;96699.47;;;6.76;74.01
55263;BME280;41125;48.752;9.168;2023-02-22T01:50:17;96702.19;;;6.76;73.83
55263;BME280;41125;48.752;9.168;2023-02-22T01:51:45;96688.44;;;6.78;73.95
55263;BME280;41125;48.752;9.168;2023-02-22T01:52:22;96693.81;;;6.78;73.81
55263;BME280;41125;48.752;9.168;2023-02-22T01:52:54;96694.63;;;6.78;73.69
55263;BME280;41125;48.752;9.168;2023-02-22T01:53:34;96695.44;;;6.79;73.54
55263;BME280;41125;48.752;9.168;2023-02-22T01:54:18;96694.34;;;6.80;73.47
55263;BME280;41125;48.752;9.168;2023-02-22T01:54:55;96691.66;;;6.80;73.76
55263;BME280;41125;48.752;9.168;2023-02-22T01:55:28;96693.28;;;6.81;73.70
55263;BME280;41125;48.752;9.168;2023-02-22T01:55:59;96689.50;;;6.82;73.61
55263;BME280;41125;48.752;9.168;2023-02-22T01:56:35;96689.50;;;6.82;73.26
55263;BME280;41125;48.752;9.168;2023-02-22T01:57:34;96688.41;;;6.83;73.32
55263;BME280;41125;48.752;9.168;2023-02-22T01:58:07;96691.13;;;6.83;73.22
55263;BME280;41125;48.752;9.168;2023-02-22T01:58:42;96692.72;;;6.84;73.53
55263;BME280;41125;48.752;9.168;2023-02-22T01:59:14;96693.81;;;6.83;73.30
55263;BME280;41125;48.752;9.168;2023-02-22T01:59:49;96690.31;;;6.82;73.30
55263;BME280;41125;48.752;9.168;2023-02-22T02:00:23;96684.09;;;6.82;73.47
55263;BME280;41125;48.752;9.168;2023-02-22T02:00:57;96686.00;;;6.81;73.54
55263;BME280;41125;48.752;9.168;2023-02-22T02:01:29;96682.50;;;6.81;73.45
55263;BME280;41125;48.752;9.168;2023-02-22T02:02:00;96680.88;;;6.80;73.67
55263;BME280;41125;48.752;9.168;2023-02-22T02:02:37;96683.56;;;6.80;73.47
55263;BME280;41125;48.752;9.168;2023-02-22T02:03:16;96686.25;;;6.80;73.54
55263;BME280;41125;48.752;9.168;2023-02-22T02:03:48;96677.63;;;6.78;73.31
55263;BME280;41125;48.752;9.168;2023-02-22T02:04:22;96684.66;;;6.79;73.58
55263;BME280;41125;48.752;9.168;2023-02-22T02:04:56;96687.63;;;6.77;73.36
55263;BME280;41125;48.752;9.168;2023-02-22T02:05:30;96679.81;;;6.76;73.53
55263;BME280;41125;48.752;9.168;2023-02-22T02:06:07;96676.56;;;6.73;73.58
55263;BME280;41125;48.752;9.168;2023-02-22T02:06:42;96683.56;;;6.75;73.73
55263;BME280;41125;48.752;9.168;2023-02-22T02:07:16;96680.34;;;6.72;73.41
55263;BME280;41125;48.752;9.168;2023-02-22T02:07:48;96684.66;;;6.73;73.79
55263;BME280;41125;48.752;9.168;2023-02-22T02:08:57;96679.81;;;6.70;73.79
55263;BME280;41125;48.752;9.168;2023-02-22T02:09:46;96675.50;;;6.69;73.57
55263;BME280;41125;48.752;9.168;2023-02-22T02:10:24;96674.69;;;6.69;73.78
55263;BME280;41125;48.752;9.168;2023-02-22T02:10:55;96676.03;;;6.66;73.76
55263;BME280;41125;48.752;9.168;2023-02-22T02:11:28;96674.41;;;6.65;73.95
55263;BME280;41125;48.752;9.168;2023-02-22T02:12:00;96667.41;;;6.64;73.80
55263;BME280;41125;48.752;9.168;2023-02-22T02:12:35;96676.03;;;6.66;73.80
55263;BME280;41125;48.752;9.168;2023-02-22T02:13:07;96676.03;;;6.66;74.02
55263;BME280;41125;48.752;9.168;2023-02-22T02:13:40;96674.41;;;6.65;74.00
55263;BME280;41125;48.752;9.168;2023-02-22T02:14:13;96669.03;;;6.65;73.67
55263;BME280;41125;48.752;9.168;2023-02-22T02:14:45;96672.81;;;6.64;74.08
55263;BME280;41125;48.752;9.168;2023-02-22T02:15:31;96670.37;;;6.63;73.64
55263;BME280;41125;48.752;9.168;2023-02-22T02:16:03;96669.56;;;6.62;74.01
55263;BME280;41125;48.752;9.168;2023-02-22T02:16:44;96673.34;;;6.61;74.08
55263;BME280;41125;48.752;9.168;2023-02-22T02:17:18;96667.97;;;6.61;74.06
55263;BME280;41125;48.752;9.168;2023-02-22T02:17:53;96671.72;;;6.60;74.14
55263;BME280;41125;48.752;9.168;2023-02-22T02:18:27;96670.13;;;6.59;74.31
55263;BME280;41125;48.752;9.168;2023-02-22T02:19:02;96665.03;;;6.58;74.07
55263;BME280;41125;48.752;9.168;2023-02-22T02:20:06;96674.47;;;6.55;74.11
55263;BME280;41125;48.752;9.168;2023-02-22T02:22:40;96664.22;;;6.52;74.02
55263;BME280;41125;48.752;9.168;2023-02-22T02:27:26;96672.03;;;6.49;74.23
55263;BME280;41125;48.752;9.168;2023-02-22T02:31:25;96657.75;;;6.48;74.13
55263;BME280;41125;48.752;9.168;2023-02-22T02:32:26;96648.88;;;6.48;74.13
55263;BME280;41125;48.752;9.168;2023-02-22T02:33:25;96653.16;;;6.49;74.12
55263;BME280;41125;48.752;9.168;2023-02-22T02:34:35;96652.38;;;6.48;74.35
55263;BME280;41125;48.752;9.168;2023-02-22T02:35:28;96656.13;;;6.47;73.89
55263;BME280;41125;48.752;9.168;2023-02-22T02:36:29;96648.31;;;6.46;74.05
55263;BME280;41125;48.752;9.168;2023-02-22T02:37:26;96651.28;;;6.44;74.33
55263;BME280;41125;48.752;9.168;2023-02-22T02:38:44;96657.75;;;6.43;74.25
55263;BME280;41125;48.752;9.168;2023-02-22T02:39:28;96653.44;;;6.42;74.26
55263;BME280;41125;48.752;9.168;2023-02-22T02:40:11;96646.97;;;6.43;74.06
55263;BME280;41125;48.752;9.168;2023-02-22T02:41:55;96651.56;;;6.43;74.29
55263;BME280;41125;48.752;9.168;2023-02-22T02:42:33;96653.44;;;6.42;74.31
55263;BME280;41125;48.752;9.168;2023-02-22T02:43:28;96643.75;;;6.41;74.12
55263;BME280;41125;48.752;9.168;2023-02-22T02:45:17;96650.75;;;6.37;74.26
55263;BME280;41125;48.752;9.168;2023-02-22T02:46:29;96652.66;;;6.31;74.21
55263;BME280;41125;48.752;9.168;2023-02-22T02:47:47;96651.28;;;6.29;74.39
55263;BME280;41125;48.752;9.168;2023-02-22T02:48:27;96652.09;;;6.29;73.97
55263;BME280;41125;48.752;9.168;2023-02-22T02:49:03;96645.38;;;6.27;74.38
55263;BME280;41125;48.752;9.168;2023-02-22T02:50:15;96647.53;;;6.25;74.45
55263;BME280;41125;48.752;9.168;2023-02-22T02:50:48;96636.22;;;6.28;74.24
55263;BME280;41125;48.752;9.168;2023-02-22T02:51:29;96645.38;;;6.27;74.23
55263;BME280;41125;48.752;9.168;2023-02-22T02:52:03;96645.13;;;6.23;74.36
55263;BME280;41125;48.752;9.168;2023-02-22T02:52:36;96644.06;;;6.19;74.80
55263;BME280;41125;48.752;9.168;2023-02-22T02:53:10;96637.31;;;6.17;74.91
55263;BME280;41125;48.752;9.168;2023-02-22T02:53:45;96642.97;;;6.15;74.51
55263;BME280;41125;48.752;9.168;2023-02-22T02:54:18;96645.94;;;6.14;74.62
55263;BME280;41125;48.752;9.168;2023-02-22T02:54:54;96648.91;;;6.12;75.20
55263;BME280;41125;48.752;9.168;2023-02-22T02:55:28;96635.69;;;6.11;74.88
55263;BME280;41125;48.752;9.168;2023-02-22T02:56:01;96642.16;;;6.10;75.15
55263;BME280;41125;48.752;9.168;2023-02-22T02:56:33;96640.56;;;6.09;75.08
55263;BME280;41125;48.752;9.168;2023-02-22T02:57:07;96642.44;;;6.08;75.44
55263;BME280;41125;48.752;9.168;2023-02-22T02:57:39;96642.97;;;6.05;75.19
55263;BME280;41125;48.752;9.168;2023-02-22T02:58:17;96639.75;;;6.03;75.79
55263;BME280;41125;48.752;9.168;2023-02-22T02:58:51;96641.09;;;6.00;75.31
55263;BME280;41125;48.752;9.168;2023-02-22T02:59:34;96634.88;;;6.00;75.28
55263;BME280;41125;48.752;9.168;2023-02-22T03:00:08;96634.06;;;5.99;75.87
55263;BME280;41125;48.752;9.168;2023-02-22T03:00:57;96635.16;;;5.98;75.60
55263;BME280;41125;48.752;9.168;2023-02-22T03:04:27;96636.78;;;5.99;75.40
55263;BME280;41125;48.752;9.168;2023-02-22T03:05:42;96636.22;;;5.97;75.71
55263;BME280;41125;48.752;9.168;2023-02-22T03:06:49;96630.31;;;5.95;75.81
55263;BME280;41125;48.752;9.168;2023-02-22T03:11:43;96625.47;;;5.97;75.59
55263;BME280;41125;48.752;9.168;2023-02-22T03:12:51;96624.66;;;5.97;75.89
55263;BME280;41125;48.752;9.168;2023-02-22T03:15:12;96616.84;;;5.95;75.84
55263;BME280;41125;48.752;9.168;2023-02-22T03:15:59;96615.22;;;5.94;75.53
55263;BME280;41125;48.752;9.168;2023-02-22T03:17:03;96627.62;;;5.95;75.90
55263;BME280;41125;48.752;9.168;2023-02-22T03:17:51;96616.31;;;5.93;75.61
55263;BME280;41125;48.752;9.168;2023-02-22T03:18:36;96617.37;;;5.92;76.07
55263;BME280;41125;48.752;9.168;2023-02-22T03:19:24;96616.56;;;5.92;76.36
55263;BME280;41125;48.752;9.168;2023-02-22T03:20:03;96617.37;;;5.92;76.34
55263;BME280;41125;48.752;9.168;2023-02-22T03:20:59;96621.16;;;5.91;76.28
55263;BME280;41125;48.752;9.168;2023-02-22T03:21:40;96622.22;;;5.90;76.71
55263;BME280;41125;48.752;9.168;2023-02-22T03:22:30;96623.31;;;5.89;76.27
55263;BME280;41125;48.752;9.168;2023-02-22T03:23:06;96617.13;;;5.89;76.49
55263;BME280;41125;48.752;9.168;2023-02-22T03:23:49;96617.37;;;5.87;76.50
55263;BME280;41125;48.752;9.168;2023-02-22T03:24:29;96620.06;;;5.87;76.50
55263;BME280;41125;48.752;9.168;2023-02-22T03:25:06;96620.06;;;5.87;76.41
55263;BME280;41125;48.752;9.168;2023-02-22T03:25:45;96621.94;;;5.87;76.88
55263;BME280;41125;48.752;9.168;2023-02-22T03:26:25;96613.06;;;5.86;76.75
55263;BME280;41125;48.752;9.168;2023-02-22T03:27:03;96615.75;;;5.86;76.63
55263;BME280;41125;48.752;9.168;2023-02-22T03:27:51;96611.19;;;5.87;76.93
55263;BME280;41125;48.752;9.168;2023-02-22T03:28:25;96616.84;;;5.85;76.74
55263;BME280;41125;48.752;9.168;2023-02-22T03:28:59;96612.25;;;5.86;76.63
55263;BME280;41125;48.752;9.168;2023-02-22T03:29:38;96613.06;;;5.86;76.96
55263;BME280;41125;48.752;9.168;2023-02-22T03:30:23;96609.03;;;5.84;77.06
55263;BME280;41125;48.752;9.168;2023-02-22T03:31:09;96613.88;;;5.87;76.80
55263;BME280;41125;48.752;9.168;2023-02-22T03:31:50;96614.69;;;5.87;76.44
55263;BME280;41125;48.752;9.168;2023-02-22T03:32:27;96610.91;;;5.88;76.71
55263;BME280;41125;48.752;9.168;2023-02-22T03:33:08;96602.84;;;5.88;76.30
55263;BME280;41125;48.752;9.168;2023-02-22T03:33:53;96609.06;;;5.89;76.51
55263;BME280;41125;48.752;9.168;2023-02-22T03:34:28;96610.91;;;5.88;76.12
55263;BME280;41125;48.752;9.168;2023-02-22T03:35:11;96603.91;;;5.87;76.07
55263;BME280;41125;48.752;9.168;2023-02-22T03:35:52;96608.50;;;5.87;76.16
55263;BME280;41125;48.752;9.168;2023-02-22T03:36:30;96605.00;;;5.86;76.25
55263;BME280;41125;48.752;9.168;2023-02-22T03:38:15;96616.03;;;5.85;76.42
55263;BME280;41125;48.752;9.168;2023-02-22T03:38:50;96605.53;;;5.83;76.06